EYKA/KUN METAR and TAF weather

Enter ICAO airport designator
Station Type Date Time Source
EYKA METAR 2022/12/04 11:50 UTC NOAA

EYKA 041150Z 14008KT 9999 BKN006 OVC008 M01/M03 Q1031


Station Type Date Time Source
EYKA Decoded METAR 2022/12/04 11:50 UTC NOAA

Kaunas, Lithuania (EYKA) 54-54N 023-55-12E
Dec 04, 2022 - 06:50 AM EST / 2022.12.04 1150 UTC
Wind: from the SE (140 degrees) at 9 MPH (8 KT):0
Visibility: greater than 7 mile(s):0
Sky conditions: overcast
Temperature: 30 F (-1 C)
Windchill: 21 F (-6 C):1
Dew Point: 26 F (-3 C)
Relative Humidity: 86%
Pressure (altimeter): 30.45 in. Hg (1031 hPa)
ob: EYKA 041150Z 14008KT 9999 BKN006 OVC008 M01/M03 Q1031
cycle: 12

Station Type Date Time Source
EYKA TAF 2022/12/04 12:03 UTC NOAA

TAF EYKA 041100Z 0412/0512 14010KT 5000 BR OVC005
TEMPO 0412/0418 3000 -FZDZ OVC010
BECMG 0418/0419 OVC010

Example: see airport list